Flight Track Log - Related Links

Times and Time Zones

All times are in EDT time to prevent confusion due to time zone crossing. See the EJA951 flight status page for this flight to view local times or setup timezone preferences in your user account.

Time Position Orientation Groundspeed Altitude Reporting Facility
EDT Latitude Longitude Course Direction KTS MPH feet Rate Location/Type
Tue 12:13:25 PM 29.8869 -94.0072 170° South 242 278 3,800  Level Houston Center
Tue 12:14:20 PM 29.8453 -94.0550 225° Southwest 299 344 6,400 3,443 Climbing Houston Center
Tue 12:14:26 PM 29.8394 -94.0761 252° West 310 357 7,300 3,194 Climbing Houston Center
Tue 12:15:22 PM 29.8089 -94.1406 241° Southwest 304 350 9,700 2,656 Climbing Houston Center
Tue 12:15:27 PM 29.7944 -94.1714 242° Southwest 357 411 10,000 290 Climbing Houston Center
Tue 12:16:24 PM 29.7500 -94.2586 240° Southwest 409 471 10,000  Level Houston Center
Tue 12:16:28 PM 29.7364 -94.2850 239° Southwest 425 489 10,000  Level Houston Center
Tue 12:17:26 PM 29.6997 -94.4083 251° West 429 494 10,000  Level Houston Center
Tue 12:17:29 PM 29.6986 -94.4128 254° West 421 484 10,000  Level Houston Center
Tue 12:18:28 PM 29.6822 -94.5406 262° West 423 487 10,000  Level Houston Center
Tue 12:18:36 PM 29.6781 -94.5669 260° West 423 487 10,000  Level Houston Center
Tue 12:19:30 PM 29.6644 -94.6736 262° West 422 486 10,000  Level Houston Center
Tue 12:19:37 PM 29.6594 -94.6994 257° West 423 487 10,000  Level Houston Center
Tue 12:20:32 PM 29.6469 -94.8075 262° West 422 486 10,000  Level Houston Center
Tue 12:20:39 PM 29.6428 -94.8314 259° West 421 484 10,000 -441 Level Houston Center
Tue 12:21:40 PM 29.6267 -94.9489 261° West 320 368 9,500 -879 Descending Houston Center
Tue 12:22:35 PM 29.6139 -95.0369 261° West 301 346 8,300 -1,158 Descending Houston Center
Tue 12:22:37 PM 29.6175 -95.0217 75° East 315 362 8,400 -1,969 Climbing Houston Center
Tue 12:23:39 PM 29.6017 -95.1331 261° West 294 338 6,200 -1,884 Descending Houston Center
Tue 12:24:38 PM 29.5586 -95.2072 236° Southwest 279 321 4,600 -1,355 Descending Houston Center
Tue 12:24:41 PM 29.5656 -95.1992 45° Northeast 294 338 4,800 -871 Climbing Houston Center
Tue 12:25:40 PM 29.5094 -95.2683 227° Southwest 237 273 3,700 -1,065 Descending Houston Center
Tue 12:25:43 PM 29.5050 -95.2736 226° Southwest 275 316 3,700 -1,082 Level Houston Center
Tue 12:26:41 PM 29.5025 -95.3267 267° West 203 234 2,600 -1,161 Descending Houston Center
Tue 12:26:45 PM 29.5019 -95.3286 252° West 237 273 2,500 -581 Descending Houston Center
Tue 12:27:43 PM 29.5458 -95.3647 324° Northwest 199 229 2,000 -484 Descending Houston Center
Tue 12:27:47 PM 29.5489 -95.3650 355° North 215 247 2,000 -590 Level Houston Center
Tue 12:28:44 PM 29.5917 -95.3378 29° Northeast 171 197 1,400 -581 Descending Houston Center
Tue 12:28:49 PM 29.5914 -95.3381 221° Southwest 193 222 1,400 -885 Level Houston Center
Tue 12:29:45 PM 29.6219 -95.3028 45° Northeast 131 151 500 -871 Descending Houston Center
Tue 12:29:51 PM 29.6225 -95.3036 307° West 168 193 500  Level Houston Center
Tue 12:32:00 PM 29.6333 -95.2667 180° South  Level FlightAware Approximate

Login

Don't have an account? Register now (free) for customized features, flight alerts, and more!